PWSweather.com
Personal Weather Stations
Station Observations
WEBSTRMN
Downtown Webster, Mn Usa, Webster, MN 55088

Downtown Webster, Mn UsaWebster, MN 55088

Lat: 44.53, Lon: -93.35

Elevation: 1099

Station Type: Vantage Pro II

www.WebsterWeatherLIVE.com

High Low Average
Temperature 52.7°F11.5°C 45.0°F7.2°C 50.2°F10.1°C
Dew Point 47.2°F8.4°C 30.3°F-0.9°C 38.2°F3.4°C
Winds 25.8 mph 41.5 kmh 5.7 mph 9.2 kmh 15.0 mph SE24.1 kmh SE
Wind Gusts 35.7 mph57.5 kmh 10.2 mph16.4 kmh 20.0 mph32.2 kmh
Humidity 93% 43% 66%
Pressure 29.99 in1015.6 mb 29.72 in1006.4 mb -
Precipitation 0.15 in3.8 mm - -
Hour Temp Dew Point Humidity Winds Wind Gusts Pressure Precip Precip Rate Daily Precip Total
12:00 AM 52.4°F11.3°C 30.5°F-0.8°C 43% 9.3 mph ESE15.0 kmh ESE 11.2 mph18.0 kmh 29.99 in1015.6 mb 0.00 in0.0 mm 0.00 in/hr0.0 mm/hr 0.00 in0.0 mm
12:10 AM 52.4°F11.3°C 30.5°F-0.8°C 43% 8.2 mph ESE13.2 kmh ESE 12.2 mph19.6 kmh 29.98 in1015.2 mb 0.00 in0.0 mm 0.00 in/hr0.0 mm/hr 0.00 in0.0 mm
12:30 AM 52.0°F11.1°C 30.8°F-0.7°C 44% 7.6 mph E12.2 kmh E 11.2 mph18.0 kmh 29.97 in1014.9 mb 0.00 in0.0 mm 0.00 in/hr0.0 mm/hr 0.00 in0.0 mm
12:40 AM 51.8°F11.0°C 30.6°F-0.8°C 44% 8.3 mph E13.4 kmh E 10.2 mph16.4 kmh 29.97 in1014.9 mb 0.00 in0.0 mm 0.00 in/hr0.0 mm/hr 0.00 in0.0 mm
12:50 AM 51.7°F10.9°C 30.5°F-0.8°C 44% 9.1 mph SE14.6 kmh SE 12.2 mph19.6 kmh 29.97 in1014.9 mb 0.00 in0.0 mm 0.00 in/hr0.0 mm/hr 0.00 in0.0 mm
01:00 AM 51.7°F10.9°C 30.5°F-0.8°C 44% 5.7 mph SE9.2 kmh SE 13.3 mph21.4 kmh 29.98 in1015.2 mb 0.00 in0.0 mm 0.00 in/hr0.0 mm/hr 0.00 in0.0 mm
01:10 AM 51.6°F10.9°C 30.4°F-0.9°C 44% 9.9 mph SE15.9 kmh SE 13.3 mph21.4 kmh 29.97 in1014.9 mb 0.00 in0.0 mm 0.00 in/hr0.0 mm/hr 0.00 in0.0 mm
01:20 AM 51.7°F10.9°C 30.5°F-0.8°C 44% 10.2 mph E16.4 kmh E 13.3 mph21.4 kmh 29.97 in1014.9 mb 0.00 in0.0 mm 0.00 in/hr0.0 mm/hr 0.00 in0.0 mm
01:30 AM 51.6°F10.9°C 30.4°F-0.9°C 44% 10.2 mph E16.4 kmh E 12.2 mph19.6 kmh 29.96 in1014.6 mb 0.00 in0.0 mm 0.00 in/hr0.0 mm/hr 0.00 in0.0 mm
01:40 AM 51.5°F10.8°C 30.3°F-0.9°C 44% 10.9 mph E17.5 kmh E 12.2 mph19.6 kmh 29.96 in1014.6 mb 0.00 in0.0 mm 0.00 in/hr0.0 mm/hr 0.00 in0.0 mm
01:50 AM 51.6°F10.9°C 30.4°F-0.9°C 44% 9.9 mph SE15.9 kmh SE 15.3 mph24.6 kmh 29.95 in1014.2 mb 0.00 in0.0 mm 0.00 in/hr0.0 mm/hr 0.00 in0.0 mm
02:00 AM 51.8°F11.0°C 30.6°F-0.8°C 44% 10.7 mph SE17.2 kmh SE 14.3 mph23.0 kmh 29.95 in1014.2 mb 0.00 in0.0 mm 0.00 in/hr0.0 mm/hr 0.00 in0.0 mm
02:10 AM 51.7°F10.9°C 31.0°F-0.6°C 45% 12.1 mph ESE19.5 kmh ESE 15.3 mph24.6 kmh 29.95 in1014.2 mb 0.00 in0.0 mm 0.00 in/hr0.0 mm/hr 0.00 in0.0 mm
02:20 AM 51.7°F10.9°C 30.5°F-0.8°C 44% 10.5 mph ESE16.9 kmh ESE 11.2 mph18.0 kmh 29.95 in1014.2 mb 0.00 in0.0 mm 0.00 in/hr0.0 mm/hr 0.00 in0.0 mm
02:40 AM 52.4°F11.3°C 30.5°F-0.8°C 43% 11.4 mph ESE18.3 kmh ESE 15.3 mph24.6 kmh 29.95 in1014.2 mb 0.00 in0.0 mm 0.00 in/hr0.0 mm/hr 0.00 in0.0 mm
02:50 AM 52.7°F11.5°C 30.8°F-0.7°C 43% 10.1 mph SE16.3 kmh SE 15.3 mph24.6 kmh 29.95 in1014.2 mb 0.00 in0.0 mm 0.00 in/hr0.0 mm/hr 0.00 in0.0 mm
03:00 AM 52.6°F11.4°C 30.7°F-0.7°C 43% 11.1 mph SE17.9 kmh SE 15.3 mph24.6 kmh 29.95 in1014.2 mb 0.00 in0.0 mm 0.00 in/hr0.0 mm/hr 0.00 in0.0 mm
03:10 AM 52.6°F11.4°C 30.7°F-0.7°C 43% 9.9 mph ESE15.9 kmh ESE 12.2 mph19.6 kmh 29.95 in1014.2 mb 0.00 in0.0 mm 0.00 in/hr0.0 mm/hr 0.00 in0.0 mm
03:20 AM 52.5°F11.4°C 30.6°F-0.8°C 43% 12.9 mph ESE20.8 kmh ESE 17.3 mph27.8 kmh 29.94 in1013.9 mb 0.00 in0.0 mm 0.00 in/hr0.0 mm/hr 0.00 in0.0 mm
03:30 AM 52.4°F11.3°C 31.1°F-0.5°C 44% 11.9 mph ESE19.2 kmh ESE 14.3 mph23.0 kmh 29.94 in1013.9 mb 0.00 in0.0 mm 0.00 in/hr0.0 mm/hr 0.00 in0.0 mm
03:40 AM 52.4°F11.3°C 30.5°F-0.8°C 43% 14.4 mph SE23.2 kmh SE 16.3 mph26.2 kmh 29.93 in1013.5 mb 0.00 in0.0 mm 0.00 in/hr0.0 mm/hr 0.00 in0.0 mm
03:50 AM 52.4°F11.3°C 31.1°F-0.5°C 44% 11.6 mph ESE18.7 kmh ESE 15.3 mph24.6 kmh 29.93 in1013.5 mb 0.00 in0.0 mm 0.00 in/hr0.0 mm/hr 0.00 in0.0 mm
04:00 AM 52.3°F11.3°C 31.0°F-0.6°C 44% 13.1 mph E21.1 kmh E 17.3 mph27.8 kmh 29.93 in1013.5 mb 0.00 in0.0 mm 0.00 in/hr0.0 mm/hr 0.00 in0.0 mm
04:10 AM 52.3°F11.3°C 31.0°F-0.6°C 44% 11.9 mph ESE19.2 kmh ESE 13.3 mph21.4 kmh 29.91 in1012.9 mb 0.00 in0.0 mm 0.00 in/hr0.0 mm/hr 0.00 in0.0 mm
04:20 AM 52.3°F11.3°C 31.0°F-0.6°C 44% 11.6 mph ESE18.7 kmh ESE 15.3 mph24.6 kmh 29.91 in1012.9 mb 0.00 in0.0 mm 0.00 in/hr0.0 mm/hr 0.00 in0.0 mm
04:30 AM 52.3°F11.3°C 30.4°F-0.9°C 43% 15.5 mph ESE24.9 kmh ESE 24.5 mph39.4 kmh 29.90 in1012.5 mb 0.00 in0.0 mm 0.00 in/hr0.0 mm/hr 0.00 in0.0 mm
04:40 AM 52.2°F11.2°C 30.9°F-0.6°C 44% 12.1 mph SE19.5 kmh SE 17.3 mph27.8 kmh 29.89 in1012.2 mb 0.00 in0.0 mm 0.00 in/hr0.0 mm/hr 0.00 in0.0 mm
04:50 AM 52.2°F11.2°C 30.9°F-0.6°C 44% 14.0 mph ESE22.5 kmh ESE 17.3 mph27.8 kmh 29.87 in1011.5 mb 0.00 in0.0 mm 0.00 in/hr0.0 mm/hr 0.00 in0.0 mm
05:00 AM 52.2°F11.2°C 30.9°F-0.6°C 44% 13.7 mph ESE22.0 kmh ESE 15.3 mph24.6 kmh 29.87 in1011.5 mb 0.00 in0.0 mm 0.00 in/hr0.0 mm/hr 0.00 in0.0 mm
05:10 AM 52.2°F11.2°C 30.9°F-0.6°C 44% 12.6 mph ESE20.3 kmh ESE 17.3 mph27.8 kmh 29.87 in1011.5 mb 0.00 in0.0 mm 0.00 in/hr0.0 mm/hr 0.00 in0.0 mm
05:20 AM 52.2°F11.2°C 30.9°F-0.6°C 44% 13.6 mph E21.9 kmh E 18.4 mph29.6 kmh 29.86 in1011.2 mb 0.00 in0.0 mm 0.00 in/hr0.0 mm/hr 0.00 in0.0 mm
05:30 AM 52.2°F11.2°C 30.9°F-0.6°C 44% 14.0 mph E22.5 kmh E 17.3 mph27.8 kmh 29.86 in1011.2 mb 0.00 in0.0 mm 0.00 in/hr0.0 mm/hr 0.00 in0.0 mm
05:40 AM 52.2°F11.2°C 30.9°F-0.6°C 44% 13.4 mph E21.6 kmh E 17.3 mph27.8 kmh 29.88 in1011.9 mb 0.00 in0.0 mm 0.00 in/hr0.0 mm/hr 0.00 in0.0 mm
05:50 AM 52.2°F11.2°C 31.0°F-0.6°C 44% 12.5 mph SE20.1 kmh SE 16.3 mph26.2 kmh 29.88 in1011.9 mb 0.00 in0.0 mm 0.00 in/hr0.0 mm/hr 0.00 in0.0 mm
06:00 AM 52.4°F11.3°C 31.1°F-0.5°C 44% 12.1 mph ESE19.5 kmh ESE 14.3 mph23.0 kmh 29.88 in1011.9 mb 0.00 in0.0 mm 0.00 in/hr0.0 mm/hr 0.00 in0.0 mm
06:10 AM 52.7°F11.5°C 30.8°F-0.7°C 43% 15.1 mph SE24.3 kmh SE 18.4 mph29.6 kmh 29.88 in1011.9 mb 0.00 in0.0 mm 0.00 in/hr0.0 mm/hr 0.00 in0.0 mm
06:20 AM 52.7°F11.5°C 30.8°F-0.7°C 43% 14.0 mph SE22.5 kmh SE 21.4 mph34.4 kmh 29.88 in1011.9 mb 0.00 in0.0 mm 0.00 in/hr0.0 mm/hr 0.00 in0.0 mm
06:30 AM 52.3°F11.3°C 32.7°F0.4°C 47% 15.5 mph SE24.9 kmh SE 21.4 mph34.4 kmh 29.87 in1011.5 mb 0.00 in0.0 mm 0.00 in/hr0.0 mm/hr 0.00 in0.0 mm
06:40 AM 51.7°F10.9°C 33.1°F0.6°C 49% 11.8 mph SE19.0 kmh SE 15.3 mph24.6 kmh 29.88 in1011.9 mb 0.00 in0.0 mm 0.00 in/hr0.0 mm/hr 0.00 in0.0 mm
06:50 AM 52.0°F11.1°C 32.4°F0.2°C 47% 12.2 mph SE19.6 kmh SE 14.3 mph23.0 kmh 29.89 in1012.2 mb 0.00 in0.0 mm 0.00 in/hr0.0 mm/hr 0.00 in0.0 mm
07:00 AM 52.0°F11.1°C 32.4°F0.2°C 47% 15.5 mph SSE24.9 kmh SSE 18.4 mph29.6 kmh 29.89 in1012.2 mb 0.00 in0.0 mm 0.00 in/hr0.0 mm/hr 0.00 in0.0 mm
07:10 AM 51.4°F10.8°C 33.4°F0.8°C 50% 18.5 mph SE29.8 kmh SE 24.5 mph39.4 kmh 29.90 in1012.5 mb 0.00 in0.0 mm 0.00 in/hr0.0 mm/hr 0.00 in0.0 mm
07:20 AM 49.6°F9.8°C 35.4°F1.9°C 58% 14.0 mph SSE22.5 kmh SSE 18.4 mph29.6 kmh 29.91 in1012.9 mb 0.00 in0.0 mm 0.00 in/hr0.0 mm/hr 0.00 in0.0 mm
07:30 AM 48.2°F9.0°C 37.0°F2.8°C 65% 10.0 mph SE16.1 kmh SE 16.3 mph26.2 kmh 29.90 in1012.5 mb 0.00 in0.0 mm 0.00 in/hr0.0 mm/hr 0.00 in0.0 mm
07:40 AM 47.7°F8.7°C 37.6°F3.1°C 68% 9.7 mph SE15.6 kmh SE 13.3 mph21.4 kmh 29.89 in1012.2 mb 0.01 in0.3 mm 0.06 in/hr1.5 mm/hr 0.01 in0.3 mm
07:50 AM 47.4°F8.6°C 37.7°F3.2°C 69% 10.1 mph ESE16.3 kmh ESE 14.3 mph23.0 kmh 29.89 in1012.2 mb 0.00 in0.0 mm 0.00 in/hr0.0 mm/hr 0.01 in0.3 mm
08:00 AM 47.2°F8.4°C 38.2°F3.4°C 71% 9.6 mph ESE15.4 kmh ESE 14.3 mph23.0 kmh 29.88 in1011.9 mb 0.00 in0.0 mm 0.00 in/hr0.0 mm/hr 0.01 in0.3 mm
08:10 AM 46.9°F8.3°C 38.4°F3.6°C 72% 9.3 mph ESE15.0 kmh ESE 13.3 mph21.4 kmh 29.87 in1011.5 mb 0.01 in0.3 mm 0.06 in/hr1.5 mm/hr 0.02 in0.5 mm
08:20 AM 46.9°F8.3°C 38.0°F3.3°C 71% 14.0 mph ESE22.5 kmh ESE 17.3 mph27.8 kmh 29.86 in1011.2 mb 0.01 in0.3 mm 0.06 in/hr1.5 mm/hr 0.03 in0.8 mm
08:30 AM 46.6°F8.1°C 38.1°F3.4°C 72% 14.1 mph SE22.7 kmh SE 19.4 mph31.2 kmh 29.86 in1011.2 mb 0.01 in0.3 mm 0.06 in/hr1.5 mm/hr 0.04 in1.0 mm
08:40 AM 46.0°F7.8°C 38.9°F3.8°C 76% 12.4 mph E20.0 kmh E 14.3 mph23.0 kmh 29.85 in1010.8 mb 0.01 in0.3 mm 0.06 in/hr1.5 mm/hr 0.05 in1.3 mm
08:50 AM 45.7°F7.6°C 39.2°F4.0°C 78% 14.5 mph ESE23.3 kmh ESE 18.4 mph29.6 kmh 29.84 in1010.5 mb 0.02 in0.5 mm 0.12 in/hr3.0 mm/hr 0.07 in1.8 mm
09:00 AM 45.4°F7.4°C 39.3°F4.1°C 79% 15.3 mph SE24.6 kmh SE 19.4 mph31.2 kmh 29.84 in1010.5 mb 0.02 in0.5 mm 0.02 in/hr0.5 mm/hr 0.08 in2.0 mm
09:10 AM 45.0°F7.2°C 39.5°F4.2°C 81% 16.5 mph ESE26.6 kmh ESE 20.4 mph32.8 kmh 29.84 in1010.5 mb 0.02 in0.5 mm 0.12 in/hr3.0 mm/hr 0.10 in2.5 mm
09:20 AM 45.2°F7.3°C 39.7°F4.3°C 81% 18.2 mph E29.3 kmh E 22.4 mph36.0 kmh 29.83 in1010.2 mb 0.01 in0.3 mm 0.06 in/hr1.5 mm/hr 0.11 in2.8 mm
09:30 AM 45.6°F7.6°C 40.5°F4.7°C 82% 15.5 mph ESE24.9 kmh ESE 19.4 mph31.2 kmh 29.83 in1010.2 mb 0.00 in0.0 mm 0.00 in/hr0.0 mm/hr 0.11 in2.8 mm
09:40 AM 46.8°F8.2°C 41.2°F5.1°C 81% 19.5 mph SE31.4 kmh SE 25.5 mph41.0 kmh 29.83 in1010.2 mb 0.01 in0.3 mm 0.06 in/hr1.5 mm/hr 0.12 in3.0 mm
09:50 AM 48.0°F8.9°C 41.8°F5.4°C 79% 20.7 mph ESE33.3 kmh ESE 25.5 mph41.0 kmh 29.82 in1009.8 mb 0.00 in0.0 mm 0.00 in/hr0.0 mm/hr 0.12 in3.0 mm
10:00 AM 48.7°F9.3°C 41.5°F5.3°C 76% 23.6 mph ESE38.0 kmh ESE 27.5 mph44.3 kmh 29.82 in1009.8 mb 0.00 in0.0 mm 0.00 in/hr0.0 mm/hr 0.12 in3.0 mm
10:10 AM 49.0°F9.4°C 42.1°F5.6°C 77% 22.0 mph SE35.4 kmh SE 27.5 mph44.3 kmh 29.82 in1009.8 mb 0.00 in0.0 mm 0.00 in/hr0.0 mm/hr 0.12 in3.0 mm
10:20 AM 49.2°F9.6°C 42.3°F5.7°C 77% 20.6 mph SE33.2 kmh SE 23.5 mph37.8 kmh 29.81 in1009.5 mb 0.00 in0.0 mm 0.00 in/hr0.0 mm/hr 0.12 in3.0 mm
10:30 AM 49.9°F9.9°C 43.0°F6.1°C 77% 23.1 mph SE37.2 kmh SE 25.5 mph41.0 kmh 29.81 in1009.5 mb 0.00 in0.0 mm 0.00 in/hr0.0 mm/hr 0.12 in3.0 mm
10:40 AM 50.0°F10.0°C 43.1°F6.2°C 77% 15.1 mph SE24.3 kmh SE 24.5 mph39.4 kmh 29.82 in1009.8 mb 0.00 in0.0 mm 0.00 in/hr0.0 mm/hr 0.12 in3.0 mm
10:50 AM 50.1°F10.1°C 43.2°F6.2°C 77% 23.2 mph SE37.3 kmh SE 32.6 mph52.5 kmh 29.81 in1009.5 mb 0.00 in0.0 mm 0.00 in/hr0.0 mm/hr 0.12 in3.0 mm
11:00 AM 50.1°F10.1°C 42.8°F6.0°C 76% 17.6 mph SE28.3 kmh SE 25.5 mph41.0 kmh 29.81 in1009.5 mb 0.00 in0.0 mm 0.00 in/hr0.0 mm/hr 0.12 in3.0 mm
11:10 AM 50.3°F10.2°C 43.0°F6.1°C 76% 25.1 mph ESE40.4 kmh ESE 31.6 mph50.9 kmh 29.80 in1009.1 mb 0.00 in0.0 mm 0.00 in/hr0.0 mm/hr 0.12 in3.0 mm
11:20 AM 50.3°F10.2°C 43.3°F6.3°C 77% 20.3 mph SE32.7 kmh SE 25.5 mph41.0 kmh 29.79 in1008.8 mb 0.00 in0.0 mm 0.00 in/hr0.0 mm/hr 0.12 in3.0 mm
11:30 AM 50.1°F10.1°C 43.2°F6.2°C 77% 25.2 mph SE40.6 kmh SE 29.6 mph47.6 kmh 29.79 in1008.8 mb 0.00 in0.0 mm 0.00 in/hr0.0 mm/hr 0.12 in3.0 mm
11:40 AM 50.3°F10.2°C 43.3°F6.3°C 77% 20.5 mph ESE33.0 kmh ESE 28.6 mph46.0 kmh 29.77 in1008.1 mb 0.00 in0.0 mm 0.00 in/hr0.0 mm/hr 0.12 in3.0 mm
11:50 AM 50.4°F10.2°C 43.5°F6.4°C 77% 25.1 mph SE40.4 kmh SE 33.7 mph54.2 kmh 29.77 in1008.1 mb 0.00 in0.0 mm 0.00 in/hr0.0 mm/hr 0.12 in3.0 mm
12:00 PM 50.6°F10.3°C 44.0°F6.7°C 78% 17.9 mph ESE28.8 kmh ESE 28.6 mph46.0 kmh 29.77 in1008.1 mb 0.00 in0.0 mm 0.00 in/hr0.0 mm/hr 0.12 in3.0 mm
12:10 PM 50.7°F10.4°C 44.1°F6.7°C 78% 20.5 mph SE33.0 kmh SE 30.6 mph49.2 kmh 29.77 in1008.1 mb 0.00 in0.0 mm 0.00 in/hr0.0 mm/hr 0.12 in3.0 mm
12:20 PM 50.8°F10.4°C 44.2°F6.8°C 78% 12.9 mph SSE20.8 kmh SSE 20.4 mph32.8 kmh 29.77 in1008.1 mb 0.00 in0.0 mm 0.00 in/hr0.0 mm/hr 0.12 in3.0 mm
12:30 PM 51.0°F10.6°C 44.0°F6.7°C 77% 22.2 mph SE35.7 kmh SE 27.5 mph44.3 kmh 29.77 in1008.1 mb 0.00 in0.0 mm 0.00 in/hr0.0 mm/hr 0.12 in3.0 mm
12:40 PM 51.2°F10.7°C 44.6°F7.0°C 78% 17.5 mph SE28.2 kmh SE 23.5 mph37.8 kmh 29.76 in1007.8 mb 0.00 in0.0 mm 0.00 in/hr0.0 mm/hr 0.12 in3.0 mm
12:50 PM 51.4°F10.8°C 44.7°F7.1°C 78% 22.4 mph ESE36.0 kmh ESE 24.5 mph39.4 kmh 29.75 in1007.5 mb 0.00 in0.0 mm 0.00 in/hr0.0 mm/hr 0.12 in3.0 mm
01:00 PM 51.4°F10.8°C 45.1°F7.3°C 79% 19.3 mph SE31.1 kmh SE 35.7 mph57.5 kmh 29.75 in1007.5 mb 0.00 in0.0 mm 0.00 in/hr0.0 mm/hr 0.12 in3.0 mm
01:10 PM 50.6°F10.3°C 44.7°F7.1°C 80% 22.5 mph SE36.2 kmh SE 31.6 mph50.9 kmh 29.75 in1007.5 mb 0.00 in0.0 mm 0.00 in/hr0.0 mm/hr 0.12 in3.0 mm
01:20 PM 50.1°F10.1°C 44.8°F7.1°C 82% 25.8 mph SE41.5 kmh SE 33.7 mph54.2 kmh 29.75 in1007.5 mb 0.00 in0.0 mm 0.00 in/hr0.0 mm/hr 0.12 in3.0 mm
01:30 PM 49.5°F9.7°C 44.9°F7.2°C 84% 24.0 mph SSE38.6 kmh SSE 30.6 mph49.2 kmh 29.75 in1007.5 mb 0.00 in0.0 mm 0.00 in/hr0.0 mm/hr 0.12 in3.0 mm
01:40 PM 49.1°F9.5°C 45.1°F7.3°C 86% 17.0 mph SE27.4 kmh SE 22.4 mph36.0 kmh 29.75 in1007.5 mb 0.01 in0.3 mm 0.06 in/hr1.5 mm/hr 0.13 in3.3 mm
01:50 PM 48.7°F9.3°C 45.3°F7.4°C 88% 19.5 mph ESE31.4 kmh ESE 29.6 mph47.6 kmh 29.75 in1007.5 mb 0.00 in0.0 mm 0.00 in/hr0.0 mm/hr 0.13 in3.3 mm
02:00 PM 49.3°F9.6°C 45.3°F7.4°C 86% 22.3 mph ESE35.9 kmh ESE 32.6 mph52.5 kmh 29.72 in1006.4 mb 0.00 in0.0 mm 0.00 in/hr0.0 mm/hr 0.13 in3.3 mm
02:10 PM 49.6°F9.8°C 45.3°F7.4°C 85% 21.7 mph SSE34.9 kmh SSE 32.6 mph52.5 kmh 29.74 in1007.1 mb 0.00 in0.0 mm 0.00 in/hr0.0 mm/hr 0.13 in3.3 mm
02:20 PM 49.4°F9.7°C 45.1°F7.3°C 85% 21.9 mph SSE35.2 kmh SSE 30.6 mph49.2 kmh 29.75 in1007.5 mb 0.00 in0.0 mm 0.00 in/hr0.0 mm/hr 0.13 in3.3 mm
02:30 PM 49.4°F9.7°C 45.1°F7.3°C 85% 20.1 mph SE32.3 kmh SE 23.5 mph37.8 kmh 29.75 in1007.5 mb 0.00 in0.0 mm 0.00 in/hr0.0 mm/hr 0.13 in3.3 mm
02:40 PM 49.2°F9.6°C 45.2°F7.3°C 86% 21.9 mph SE35.2 kmh SE 27.5 mph44.3 kmh 29.74 in1007.1 mb 0.00 in0.0 mm 0.00 in/hr0.0 mm/hr 0.13 in3.3 mm
02:50 PM 49.1°F9.5°C 45.1°F7.3°C 86% 17.2 mph SE27.7 kmh SE 29.6 mph47.6 kmh 29.75 in1007.5 mb 0.00 in0.0 mm 0.00 in/hr0.0 mm/hr 0.13 in3.3 mm
03:00 PM 49.0°F9.4°C 45.0°F7.2°C 86% 24.7 mph SE39.8 kmh SE 28.6 mph46.0 kmh 29.74 in1007.1 mb 0.00 in0.0 mm 0.00 in/hr0.0 mm/hr 0.13 in3.3 mm
03:10 PM 48.6°F9.2°C 45.3°F7.4°C 88% 15.5 mph SE24.9 kmh SE 19.4 mph31.2 kmh 29.74 in1007.1 mb 0.00 in0.0 mm 0.00 in/hr0.0 mm/hr 0.13 in3.3 mm
03:20 PM 48.4°F9.1°C 45.3°F7.4°C 89% 17.5 mph SE28.2 kmh SE 20.4 mph32.8 kmh 29.74 in1007.1 mb 0.00 in0.0 mm 0.00 in/hr0.0 mm/hr 0.13 in3.3 mm
03:30 PM 48.3°F9.1°C 45.5°F7.5°C 90% 13.9 mph SE22.4 kmh SE 19.4 mph31.2 kmh 29.73 in1006.8 mb 0.00 in0.0 mm 0.00 in/hr0.0 mm/hr 0.13 in3.3 mm
03:40 PM 48.3°F9.1°C 45.5°F7.5°C 90% 15.6 mph E25.1 kmh E 22.4 mph36.0 kmh 29.73 in1006.8 mb 0.00 in0.0 mm 0.00 in/hr0.0 mm/hr 0.13 in3.3 mm
04:00 PM 48.4°F9.1°C 45.9°F7.7°C 91% 18.4 mph SE29.6 kmh SE 19.4 mph31.2 kmh 29.72 in1006.4 mb 0.00 in0.0 mm 0.00 in/hr0.0 mm/hr 0.13 in3.3 mm
04:10 PM 48.4°F9.1°C 45.9°F7.7°C 91% 15.1 mph N24.3 kmh N 19.4 mph31.2 kmh 29.72 in1006.4 mb 0.00 in0.0 mm 0.00 in/hr0.0 mm/hr 0.13 in3.3 mm
04:20 PM 48.4°F9.1°C 45.9°F7.7°C 91% 10.4 mph SE16.7 kmh SE 18.4 mph29.6 kmh 29.74 in1007.1 mb 0.00 in0.0 mm 0.00 in/hr0.0 mm/hr 0.13 in3.3 mm
04:30 PM 48.5°F9.2°C 46.0°F7.8°C 91% 15.0 mph SE24.1 kmh SE 20.4 mph32.8 kmh 29.73 in1006.8 mb 0.00 in0.0 mm 0.00 in/hr0.0 mm/hr 0.13 in3.3 mm
04:40 PM 48.5°F9.2°C 46.3°F7.9°C 92% 15.2 mph ESE24.5 kmh ESE 17.3 mph27.8 kmh 29.73 in1006.8 mb 0.01 in0.3 mm 0.06 in/hr1.5 mm/hr 0.14 in3.6 mm
04:50 PM 48.7°F9.3°C 46.5°F8.1°C 92% 13.7 mph SE22.0 kmh SE 16.3 mph26.2 kmh 29.72 in1006.4 mb 0.02 in0.5 mm 0.12 in/hr3.0 mm/hr 0.15 in3.8 mm
05:00 PM 48.9°F9.4°C 47.0°F8.3°C 93% 17.3 mph SE27.8 kmh SE 23.5 mph37.8 kmh 29.72 in1006.4 mb 0.00 in0.0 mm 0.00 in/hr0.0 mm/hr 0.15 in3.8 mm
05:10 PM 49.0°F9.4°C 47.0°F8.3°C 93% 16.4 mph SSE26.4 kmh SSE 24.5 mph39.4 kmh 29.72 in1006.4 mb 0.00 in0.0 mm 0.00 in/hr0.0 mm/hr 0.15 in3.8 mm
05:20 PM 49.2°F9.6°C 47.0°F8.3°C 92% 14.5 mph SE23.3 kmh SE 23.5 mph37.8 kmh 29.72 in1006.4 mb 0.00 in0.0 mm 0.00 in/hr0.0 mm/hr 0.15 in3.8 mm
05:30 PM 49.4°F9.7°C 47.2°F8.4°C 92% 17.6 mph S28.3 kmh S 21.4 mph34.4 kmh 29.72 in1006.4 mb 0.00 in0.0 mm 0.00 in/hr0.0 mm/hr 0.15 in3.8 mm
05:40 PM 49.4°F9.7°C 47.2°F8.4°C 92% 18.0 mph SE29.0 kmh SE 22.4 mph36.0 kmh 29.72 in1006.4 mb 0.00 in0.0 mm 0.00 in/hr0.0 mm/hr 0.15 in3.8 mm
05:50 PM 49.3°F9.6°C 47.1°F8.4°C 92% 13.4 mph SE21.6 kmh SE 15.3 mph24.6 kmh 29.73 in1006.8 mb 0.00 in0.0 mm 0.00 in/hr0.0 mm/hr 0.15 in3.8 mm
06:00 PM 49.4°F9.7°C 47.2°F8.4°C 92% 13.7 mph SE22.0 kmh SE 19.4 mph31.2 kmh 29.72 in1006.4 mb 0.00 in0.0 mm 0.00 in/hr0.0 mm/hr 0.15 in3.8 mm
06:10 PM 49.5°F9.7°C 47.3°F8.5°C 92% 16.1 mph SSE25.9 kmh SSE 20.4 mph32.8 kmh 29.72 in1006.4 mb 0.00 in0.0 mm 0.00 in/hr0.0 mm/hr 0.15 in3.8 mm
06:20 PM 49.6°F9.8°C 47.1°F8.4°C 91% 15.3 mph SSE24.6 kmh SSE 18.4 mph29.6 kmh 29.72 in1006.4 mb 0.00 in0.0 mm 0.00 in/hr0.0 mm/hr 0.15 in3.8 mm
06:30 PM 49.6°F9.8°C 47.4°F8.6°C 92% 15.4 mph SE24.8 kmh SE 20.4 mph32.8 kmh 29.72 in1006.4 mb 0.00 in0.0 mm 0.00 in/hr0.0 mm/hr 0.15 in3.8 mm
06:40 PM 49.5°F9.7°C 47.3°F8.5°C 92% 12.4 mph SSE20.0 kmh SSE 19.4 mph31.2 kmh 29.72 in1006.4 mb 0.00 in0.0 mm 0.00 in/hr0.0 mm/hr 0.15 in3.8 mm
06:50 PM 49.5°F9.7°C 47.3°F8.5°C 92% 15.3 mph SSE24.6 kmh SSE 18.4 mph29.6 kmh 29.72 in1006.4 mb 0.00 in0.0 mm 0.00 in/hr0.0 mm/hr 0.15 in3.8 mm
07:00 PM 49.4°F9.7°C 47.5°F8.6°C 93% 15.5 mph SE24.9 kmh SE 19.4 mph31.2 kmh 29.72 in1006.4 mb 0.00 in0.0 mm 0.00 in/hr0.0 mm/hr 0.15 in3.8 mm
07:10 PM 49.3°F9.6°C 47.4°F8.6°C 93% 10.8 mph SE17.4 kmh SE 12.2 mph19.6 kmh 29.72 in1006.4 mb 0.00 in0.0 mm 0.00 in/hr0.0 mm/hr 0.15 in3.8 mm
07:20 PM 49.2°F9.6°C 47.3°F8.5°C 93% 13.0 mph SE20.9 kmh SE 16.3 mph26.2 kmh 29.71 in1006.1 mb 0.00 in0.0 mm 0.00 in/hr0.0 mm/hr 0.15 in3.8 mm
07:30 PM 49.3°F9.6°C 47.6°F8.7°C 94% 13.2 mph ESE21.2 kmh ESE 17.3 mph27.8 kmh 29.71 in1006.1 mb 0.00 in0.0 mm 0.00 in/hr0.0 mm/hr 0.15 in3.8 mm
07:40 PM 49.4°F9.7°C 47.7°F8.7°C 94% 8.6 mph SE13.8 kmh SE 12.2 mph19.6 kmh 29.72 in1006.4 mb 0.00 in0.0 mm 0.00 in/hr0.0 mm/hr 0.15 in3.8 mm
07:50 PM 49.4°F9.7°C 47.7°F8.7°C 94% 10.9 mph SE17.5 kmh SE 17.3 mph27.8 kmh 29.72 in1006.4 mb 0.00 in0.0 mm 0.00 in/hr0.0 mm/hr 0.15 in3.8 mm
08:00 PM 49.4°F9.7°C 47.7°F8.7°C 94% 10.9 mph ESE17.5 kmh ESE 19.4 mph31.2 kmh 29.72 in1006.4 mb 0.00 in0.0 mm 0.00 in/hr0.0 mm/hr 0.15 in3.8 mm
08:10 PM 49.5°F9.7°C 47.8°F8.8°C 94% 11.2 mph SE18.0 kmh SE 16.3 mph26.2 kmh 29.71 in1006.1 mb 0.00 in0.0 mm 0.00 in/hr0.0 mm/hr 0.15 in3.8 mm
08:20 PM 49.5°F9.7°C 48.1°F8.9°C 95% 9.5 mph SE15.3 kmh SE 12.2 mph19.6 kmh 29.72 in1006.4 mb 0.01 in0.3 mm 0.06 in/hr1.5 mm/hr 0.16 in4.1 mm
08:30 PM 49.7°F9.8°C 48.3°F9.1°C 95% 12.1 mph SSE19.5 kmh SSE 16.3 mph26.2 kmh 29.75 in1007.5 mb 0.11 in2.8 mm 0.66 in/hr16.8 mm/hr 0.29 in7.4 mm
08:40 PM 49.5°F9.7°C 48.1°F8.9°C 95% 9.9 mph SSE15.9 kmh SSE 13.3 mph21.4 kmh 29.74 in1007.1 mb 0.06 in1.5 mm 0.36 in/hr9.1 mm/hr 0.30 in7.6 mm
08:50 PM 49.6°F9.8°C 48.2°F9.0°C 95% 9.5 mph SE15.3 kmh SE 17.3 mph27.8 kmh 29.73 in1006.8 mb 0.00 in0.0 mm 0.00 in/hr0.0 mm/hr 0.30 in7.6 mm
09:00 PM 49.9°F9.9°C 48.5°F9.2°C 95% 9.3 mph SSE15.0 kmh SSE 14.3 mph23.0 kmh 29.74 in1007.1 mb 0.00 in0.0 mm 0.00 in/hr0.0 mm/hr 0.30 in7.6 mm
09:10 PM 50.1°F10.1°C 48.7°F9.3°C 95% 11.7 mph S18.8 kmh S 16.3 mph26.2 kmh 29.74 in1007.1 mb 0.00 in0.0 mm 0.00 in/hr0.0 mm/hr 0.30 in7.6 mm
09:20 PM 50.4°F10.2°C 49.0°F9.4°C 95% 10.0 mph SSE16.1 kmh SSE 17.3 mph27.8 kmh 29.74 in1007.1 mb 0.00 in0.0 mm 0.00 in/hr0.0 mm/hr 0.30 in7.6 mm
09:30 PM 50.6°F10.3°C 49.2°F9.6°C 95% 11.7 mph SE18.8 kmh SE 16.3 mph26.2 kmh 29.74 in1007.1 mb 0.00 in0.0 mm 0.00 in/hr0.0 mm/hr 0.30 in7.6 mm
09:50 PM 50.8°F10.4°C 49.4°F9.7°C 95% 9.3 mph SSE15.0 kmh SSE 12.2 mph19.6 kmh 29.74 in1007.1 mb 0.00 in0.0 mm 0.00 in/hr0.0 mm/hr 0.30 in7.6 mm
10:00 PM 51.0°F10.6°C 49.6°F9.8°C 95% 9.0 mph SSE14.5 kmh SSE 11.2 mph18.0 kmh 29.74 in1007.1 mb 0.00 in0.0 mm 0.00 in/hr0.0 mm/hr 0.30 in7.6 mm
10:10 PM 51.2°F10.7°C 49.8°F9.9°C 95% 6.7 mph S10.8 kmh S 11.2 mph18.0 kmh 29.74 in1007.1 mb 0.00 in0.0 mm 0.00 in/hr0.0 mm/hr 0.30 in7.6 mm
10:20 PM 51.4°F10.8°C 50.0°F10.0°C 95% 8.1 mph SSE13.0 kmh SSE 10.2 mph16.4 kmh 29.74 in1007.1 mb 0.00 in0.0 mm 0.00 in/hr0.0 mm/hr 0.30 in7.6 mm
10:30 PM 51.5°F10.8°C 50.1°F10.1°C 95% 8.1 mph SSW13.0 kmh SSW 14.3 mph23.0 kmh 29.74 in1007.1 mb 0.00 in0.0 mm 0.00 in/hr0.0 mm/hr 0.30 in7.6 mm
10:40 PM 51.5°F10.8°C 50.1°F10.1°C 95% 8.8 mph S14.2 kmh S 12.2 mph19.6 kmh 29.74 in1007.1 mb 0.00 in0.0 mm 0.00 in/hr0.0 mm/hr 0.30 in7.6 mm
10:50 PM 51.5°F10.8°C 50.1°F10.1°C 95% 7.9 mph SSW12.7 kmh SSW 16.3 mph26.2 kmh 29.74 in1007.1 mb 0.00 in0.0 mm 0.00 in/hr0.0 mm/hr 0.30 in7.6 mm
11:00 PM 51.7°F10.9°C 50.3°F10.2°C 95% 11.2 mph S18.0 kmh S 13.3 mph21.4 kmh 29.74 in1007.1 mb 0.00 in0.0 mm 0.00 in/hr0.0 mm/hr 0.35 in8.9 mm
11:10 PM 51.5°F10.8°C 50.1°F10.1°C 95% 11.0 mph S17.7 kmh S 15.3 mph24.6 kmh 29.74 in1007.1 mb 0.00 in0.0 mm 0.00 in/hr0.0 mm/hr 0.35 in8.9 mm
11:20 PM 51.6°F10.9°C 50.2°F10.1°C 95% 10.7 mph S17.2 kmh S 18.4 mph29.6 kmh 29.74 in1007.1 mb 0.00 in0.0 mm 0.00 in/hr0.0 mm/hr 0.35 in8.9 mm
11:30 PM 51.5°F10.8°C 50.1°F10.1°C 95% 6.6 mph SSW10.6 kmh SSW 9.2 mph14.8 kmh 29.75 in1007.5 mb 0.00 in0.0 mm 0.00 in/hr0.0 mm/hr 0.35 in8.9 mm
11:40 PM 51.4°F10.8°C 50.0°F10.0°C 95% 6.8 mph SSW10.9 kmh SSW 14.3 mph23.0 kmh 29.75 in1007.5 mb 0.00 in0.0 mm 0.00 in/hr0.0 mm/hr 0.35 in8.9 mm
11:50 PM 51.1°F10.6°C 49.7°F9.8°C 95% 4.4 mph S7.1 kmh S 10.2 mph16.4 kmh 29.75 in1007.5 mb 0.00 in0.0 mm 0.00 in/hr0.0 mm/hr 0.35 in8.9 mm